createdAt,value
2023-04-10T00:00:57.156Z,25.43
2023-04-10T00:03:25.609Z,29.53
2023-04-10T00:05:55.018Z,29.87
2023-04-10T00:08:23.433Z,28.80
2023-04-10T00:10:51.388Z,28.63
2023-04-10T00:13:19.094Z,26.90
2023-04-10T00:15:47.080Z,25.83
2023-04-10T00:18:14.830Z,27.67
2023-04-10T00:20:43.652Z,27.03
2023-04-10T00:23:12.792Z,24.93
2023-04-10T00:25:40.608Z,26.97
2023-04-10T00:28:08.370Z,28.53
2023-04-10T00:30:36.071Z,28.93
2023-04-10T00:33:04.075Z,31.30
2023-04-10T00:35:31.915Z,31.00
2023-04-10T00:37:59.695Z,34.30
2023-04-10T00:40:30.340Z,31.20
2023-04-10T00:42:58.110Z,32.03
2023-04-10T00:45:26.122Z,33.47
2023-04-10T00:47:54.129Z,31.90
2023-04-10T00:50:22.686Z,29.47
2023-04-10T00:52:51.778Z,29.03
2023-04-10T00:55:19.786Z,25.57
2023-04-10T00:57:49.565Z,28.10
2023-04-10T01:00:18.686Z,24.63
2023-04-10T01:02:46.619Z,27.20
2023-04-10T01:05:14.905Z,27.53
2023-04-10T01:07:55.487Z,30.10
2023-04-10T01:10:30.858Z,30.53
2023-04-10T01:13:09.729Z,34.50
2023-04-10T01:15:44.962Z,33.47
2023-04-10T01:18:20.491Z,33.47
2023-04-10T01:20:48.280Z,32.07
2023-04-10T01:23:53.832Z,30.83
2023-04-10T01:26:37.646Z,38.63
2023-04-10T01:29:09.392Z,39.87
2023-04-10T01:31:42.586Z,41.63
2023-04-10T01:34:16.182Z,53.73
2023-04-10T01:36:50.670Z,53.77
2023-04-10T01:39:20.780Z,52.67
2023-04-10T01:41:51.027Z,43.37
2023-04-10T01:44:25.657Z,48.33
2023-04-10T01:46:55.131Z,35.83
2023-04-10T01:49:24.870Z,44.43
2023-04-10T01:51:54.303Z,41.23
2023-04-10T01:54:22.477Z,39.63
2023-04-10T01:56:50.403Z,40.87
2023-04-10T01:59:20.025Z,40.17
2023-04-10T02:01:47.893Z,35.80
2023-04-10T02:04:15.724Z,35.20
2023-04-10T02:06:52.607Z,35.17
2023-04-10T02:09:24.238Z,39.93
2023-04-10T02:11:56.802Z,36.97
2023-04-10T02:14:29.346Z,40.87
2023-04-10T02:16:57.950Z,36.67
2023-04-10T02:19:28.388Z,34.03
2023-04-10T02:21:56.966Z,36.63
2023-04-10T02:24:24.883Z,47.37
2023-04-10T02:26:53.912Z,40.77
2023-04-10T02:29:21.769Z,47.40
2023-04-10T02:31:51.317Z,39.40
2023-04-10T02:34:19.100Z,39.83
2023-04-10T02:36:46.842Z,48.80
2023-04-10T02:39:14.614Z,41.33
2023-04-10T02:41:42.350Z,49.50
2023-04-10T02:44:10.117Z,45.17
2023-04-10T02:46:37.977Z,34.60
2023-04-10T02:49:07.811Z,31.67
2023-04-10T02:51:36.990Z,30.93
2023-04-10T02:54:04.990Z,32.07
2023-04-10T02:56:34.783Z,31.00
2023-04-10T02:59:02.575Z,31.63
2023-04-10T03:01:30.877Z,30.33
2023-04-10T03:03:59.022Z,26.43
2023-04-10T03:06:28.228Z,28.47
2023-04-10T03:08:56.202Z,28.90
2023-04-10T03:11:24.153Z,29.33
2023-04-10T03:13:52.164Z,29.30
2023-04-10T03:16:20.692Z,27.60
2023-04-10T03:18:48.662Z,32.63
2023-04-10T03:21:16.536Z,27.53
2023-04-10T03:23:46.470Z,29.50
2023-04-10T03:26:14.206Z,30.03
2023-04-10T03:28:41.961Z,32.30
2023-04-10T03:31:09.837Z,33.40
2023-04-10T03:33:37.782Z,35.47
2023-04-10T03:36:06.405Z,30.47
2023-04-10T03:38:34.262Z,35.47
2023-04-10T03:41:03.424Z,30.27
2023-04-10T03:43:31.579Z,34.27
2023-04-10T03:45:59.552Z,34.90
2023-04-10T03:48:28.550Z,29.70
2023-04-10T03:50:56.476Z,33.83
2023-04-10T03:53:24.375Z,38.63
2023-04-10T03:55:52.909Z,43.43
2023-04-10T03:58:22.054Z,39.63
2023-04-10T04:00:49.812Z,37.93
2023-04-10T04:03:17.740Z,36.73
2023-04-10T04:05:45.814Z,45.90
2023-04-10T04:08:14.070Z,36.67
2023-04-10T04:10:41.846Z,47.67
2023-04-10T04:13:09.639Z,48.87
2023-04-10T04:15:38.765Z,39.03
2023-04-10T04:18:06.653Z,45.67
2023-04-10T04:20:34.448Z,45.90
2023-04-10T04:23:02.185Z,45.27
2023-04-10T04:25:29.992Z,50.20
2023-04-10T04:27:57.835Z,46.30
2023-04-10T04:30:25.720Z,50.17
2023-04-10T04:32:54.905Z,45.83
2023-04-10T04:35:23.128Z,40.90
2023-04-10T04:37:50.862Z,35.73
2023-04-10T04:40:18.725Z,31.70
2023-04-10T04:42:46.464Z,36.50
2023-04-10T04:45:14.284Z,26.43
2023-04-10T04:47:42.207Z,32.17
2023-04-10T04:50:11.802Z,24.77
2023-04-10T04:52:39.551Z,31.27
2023-04-10T04:55:08.570Z,30.00
2023-04-10T04:57:36.356Z,23.87
2023-04-10T05:00:04.514Z,24.30
2023-04-10T05:02:32.312Z,24.87
2023-04-10T05:05:00.467Z,26.67
2023-04-10T05:07:29.549Z,26.37
2023-04-10T05:09:57.308Z,31.00
2023-04-10T05:12:25.091Z,33.43
2023-04-10T05:14:52.884Z,30.67
2023-04-10T05:17:20.660Z,31.17
2023-04-10T05:19:48.620Z,27.97
2023-04-10T05:22:18.546Z,34.50
2023-04-10T05:24:47.886Z,36.43
2023-04-10T05:27:15.675Z,28.63
2023-04-10T05:29:43.405Z,33.40
2023-04-10T05:32:11.146Z,27.57
2023-04-10T05:34:38.929Z,27.73
2023-04-10T05:37:06.768Z,29.50
2023-04-10T05:39:34.512Z,31.97
2023-04-10T05:42:03.573Z,29.50
2023-04-10T05:44:31.981Z,25.20
2023-04-10T05:46:59.705Z,26.70
2023-04-10T05:49:27.477Z,25.07
2023-04-10T05:51:55.234Z,28.87
2023-04-10T05:54:23.159Z,24.43
2023-04-10T05:56:51.041Z,23.30
2023-04-10T05:59:20.189Z,26.00
2023-04-10T06:01:48.093Z,27.83
2023-04-10T06:04:15.989Z,26.47
2023-04-10T06:06:43.899Z,25.37
2023-04-10T06:09:11.637Z,22.03
2023-04-10T06:11:39.466Z,25.30
2023-04-10T06:14:07.465Z,24.43
2023-04-10T06:16:36.704Z,23.33
2023-04-10T06:19:04.583Z,22.23
2023-04-10T06:21:32.731Z,22.93
2023-04-10T06:24:00.492Z,20.93
2023-04-10T06:26:28.299Z,21.90
2023-04-10T06:28:56.636Z,19.53
2023-04-10T06:31:25.480Z,21.97
2023-04-10T06:33:54.558Z,20.93
2023-04-10T06:36:22.347Z,20.67
2023-04-10T06:38:50.269Z,20.50
2023-04-10T06:41:17.970Z,19.27
2023-04-10T06:43:46.073Z,18.30
2023-04-10T06:46:14.293Z,19.33
2023-04-10T06:48:42.152Z,20.50
2023-04-10T06:51:11.220Z,19.97
2023-04-10T06:53:39.005Z,20.13
2023-04-10T06:56:08.193Z,20.67
2023-04-10T06:58:35.978Z,20.20
2023-04-10T07:01:04.745Z,20.40
2023-04-10T07:03:33.826Z,21.37
2023-04-10T07:06:03.356Z,20.03
2023-04-10T07:08:32.555Z,20.57
2023-04-10T07:11:00.333Z,21.47
2023-04-10T07:13:28.160Z,22.43
2023-04-10T07:15:56.054Z,22.07
2023-04-10T07:18:23.876Z,22.80
2023-04-10T07:20:52.421Z,23.60
2023-04-10T07:23:20.480Z,23.17
2023-04-10T07:25:49.556Z,24.40
2023-04-10T07:28:17.304Z,24.57
2023-04-10T07:30:45.024Z,25.07
2023-04-10T07:33:12.958Z,23.70
2023-04-10T07:35:40.939Z,24.70
2023-04-10T07:38:08.792Z,22.37
2023-04-10T07:40:36.502Z,22.93
2023-04-10T07:43:05.703Z,23.30
2023-04-10T07:45:33.863Z,23.43
2023-04-10T07:48:02.714Z,22.13
2023-04-10T07:50:31.391Z,22.57
2023-04-10T07:53:03.473Z,23.07
2023-04-10T07:55:31.258Z,23.02
2023-04-10T07:57:58.996Z,21.33
2023-04-10T08:00:28.063Z,21.83
2023-04-10T08:02:56.144Z,22.10
2023-04-10T08:05:24.172Z,21.70
2023-04-10T08:07:52.015Z,20.55
2023-04-10T08:10:20.252Z,21.63
2023-04-10T08:12:47.977Z,21.77
2023-04-10T08:15:16.475Z,20.02
2023-04-10T08:17:45.950Z,21.17
2023-04-10T08:20:14.451Z,18.80
2023-04-10T08:22:42.187Z,18.20
2023-04-10T08:25:10.726Z,19.80
2023-04-10T08:27:38.640Z,16.70
2023-04-10T08:30:07.359Z,16.20
2023-04-10T08:32:35.233Z,15.48
2023-04-10T08:35:04.681Z,15.63
2023-04-10T08:37:32.634Z,15.90
2023-04-10T08:40:00.446Z,16.55
2023-04-10T08:42:28.344Z,16.08
2023-04-10T08:44:56.184Z,14.65
2023-04-10T08:47:28.684Z,15.00
2023-04-10T08:49:58.917Z,14.52
2023-04-10T08:52:32.230Z,13.52
2023-04-10T08:55:03.537Z,14.38
2023-04-10T08:57:31.403Z,13.30
2023-04-10T09:00:04.067Z,13.50
2023-04-10T09:02:42.425Z,12.95
2023-04-10T09:05:13.142Z,12.73
2023-04-10T09:07:42.265Z,11.90
2023-04-10T09:10:11.022Z,12.40
2023-04-10T09:12:46.623Z,12.35
2023-04-10T09:15:15.372Z,12.20
2023-04-10T09:17:59.936Z,12.57
2023-04-10T09:20:29.860Z,11.43
2023-04-10T09:22:59.048Z,11.93
2023-04-10T09:25:32.522Z,11.07
2023-04-10T09:28:08.322Z,11.95
2023-04-10T09:30:37.875Z,12.13
2023-04-10T09:33:22.820Z,10.90
2023-04-10T09:35:51.506Z,10.73
2023-04-10T09:38:21.861Z,12.13
2023-04-10T09:40:51.082Z,11.75
2023-04-10T09:43:21.901Z,11.27
2023-04-10T09:45:54.050Z,12.70
2023-04-10T09:48:22.816Z,11.30
2023-04-10T09:50:51.468Z,11.40
2023-04-10T09:53:21.864Z,11.23
2023-04-10T09:55:50.836Z,11.25
2023-04-10T09:58:19.012Z,10.27
2023-04-10T10:00:48.621Z,9.25
2023-04-10T10:03:18.127Z,9.55
2023-04-10T10:05:47.393Z,9.50
2023-04-10T10:08:16.558Z,10.05
2023-04-10T10:10:49.375Z,9.80
2023-04-10T10:13:20.819Z,7.82
2023-04-10T10:15:55.797Z,7.97
2023-04-10T10:18:33.061Z,8.38
2023-04-10T10:21:01.794Z,8.68
2023-04-10T10:23:30.206Z,8.70
2023-04-10T10:26:02.531Z,8.85
2023-04-10T10:28:34.126Z,8.95
2023-04-10T10:31:04.219Z,9.38
2023-04-10T10:33:33.250Z,9.43
2023-04-10T10:36:01.528Z,8.88
2023-04-10T10:38:29.505Z,8.90
2023-04-10T10:41:03.599Z,9.30
2023-04-10T10:43:44.037Z,8.82
2023-04-10T10:46:18.374Z,8.75
2023-04-10T10:48:57.359Z,8.43
2023-04-10T10:51:25.127Z,8.68
2023-04-10T10:53:52.995Z,8.82
2023-04-10T10:56:37.844Z,8.18
2023-04-10T10:59:05.730Z,8.10
2023-04-10T11:01:33.599Z,8.68
2023-04-10T11:04:02.311Z,9.82
2023-04-10T11:06:49.972Z,8.43
2023-04-10T11:09:48.775Z,9.00
2023-04-10T11:12:20.393Z,9.25
2023-04-10T11:14:58.749Z,9.70
2023-04-10T11:17:49.651Z,9.32
2023-04-10T11:20:18.121Z,9.50
2023-04-10T11:23:08.718Z,8.48
2023-04-10T11:25:50.392Z,8.88
2023-04-10T11:28:38.357Z,8.45
2023-04-10T11:31:20.966Z,8.65
2023-04-10T11:33:49.625Z,8.25
2023-04-10T11:36:18.544Z,8.32
2023-04-10T11:38:57.275Z,9.57
2023-04-10T11:41:30.407Z,8.85
2023-04-10T11:43:59.775Z,9.07
2023-04-10T11:46:27.724Z,8.68
2023-04-10T11:48:57.241Z,8.77
2023-04-10T11:51:27.092Z,8.60
2023-04-10T11:54:07.119Z,9.45
2023-04-10T11:56:35.425Z,8.38
2023-04-10T11:59:07.514Z,8.85
2023-04-10T12:01:35.724Z,7.28
2023-04-10T12:04:03.990Z,7.60
2023-04-10T12:06:32.903Z,8.38
2023-04-10T12:09:00.659Z,7.82
2023-04-10T12:11:29.669Z,8.20
2023-04-10T12:13:58.920Z,6.70
2023-04-10T12:16:28.415Z,7.82
2023-04-10T12:18:56.402Z,7.32
2023-04-10T12:21:24.478Z,7.75
2023-04-10T12:23:53.053Z,7.78
2023-04-10T12:26:22.524Z,6.75
2023-04-10T12:28:55.013Z,7.18
2023-04-10T12:31:31.750Z,6.97
2023-04-10T12:34:01.294Z,6.30
2023-04-10T12:36:32.265Z,6.13
2023-04-10T12:39:01.420Z,6.00
2023-04-10T12:41:31.178Z,6.57
2023-04-10T12:44:09.327Z,5.45
2023-04-10T12:46:38.813Z,5.72
2023-04-10T12:49:11.485Z,5.10
2023-04-10T12:51:47.353Z,6.45
2023-04-10T12:54:32.218Z,6.13
2023-04-10T12:57:00.650Z,5.97
2023-04-10T12:59:29.083Z,6.68
2023-04-10T13:01:58.537Z,7.13
2023-04-10T13:04:26.988Z,7.57
2023-04-10T13:06:54.860Z,6.40
2023-04-10T13:09:22.744Z,5.85
2023-04-10T13:11:52.350Z,6.25
2023-04-10T13:14:20.119Z,7.15
2023-04-10T13:16:48.244Z,6.45
2023-04-10T13:19:17.679Z,6.05
2023-04-10T13:21:45.444Z,6.88
2023-04-10T13:24:15.321Z,6.60
2023-04-10T13:26:44.366Z,6.68
2023-04-10T13:29:12.087Z,7.85
2023-04-10T13:31:39.898Z,7.10
2023-04-10T13:34:07.678Z,7.05
2023-04-10T13:36:36.956Z,7.70
2023-04-10T13:39:04.877Z,7.63
2023-04-10T13:41:32.679Z,7.55
2023-04-10T13:44:00.548Z,7.55
2023-04-10T13:46:28.368Z,6.80
2023-04-10T13:48:56.322Z,7.47
2023-04-10T13:51:24.280Z,8.00
2023-04-10T13:53:53.451Z,8.50
2023-04-10T13:56:21.190Z,7.20
2023-04-10T13:58:49.529Z,8.10
2023-04-10T14:01:17.341Z,8.00
2023-04-10T14:03:45.324Z,8.05
2023-04-10T14:06:14.228Z,8.07
2023-04-10T14:08:42.041Z,7.93
2023-04-10T14:11:11.118Z,7.82
2023-04-10T14:13:38.900Z,7.30
2023-04-10T14:16:07.839Z,8.45
2023-04-10T14:18:37.546Z,8.60
2023-04-10T14:21:05.582Z,8.40
2023-04-10T14:23:33.340Z,8.07
2023-04-10T14:26:01.147Z,7.95
2023-04-10T14:28:31.513Z,7.93
2023-04-10T14:30:59.316Z,7.22
2023-04-10T14:33:27.264Z,7.60
2023-04-10T14:35:55.203Z,8.07
2023-04-10T14:38:23.108Z,7.38
2023-04-10T14:40:50.966Z,7.13
2023-04-10T14:43:19.547Z,7.07
2023-04-10T14:45:48.763Z,7.05
2023-04-10T14:48:16.886Z,7.40
2023-04-10T14:50:44.661Z,7.03
2023-04-10T14:53:12.574Z,6.85
2023-04-10T14:55:40.397Z,6.68
2023-04-10T14:58:09.102Z,6.55
2023-04-10T15:00:36.866Z,6.82
2023-04-10T15:03:06.702Z,6.75
2023-04-10T15:05:34.581Z,6.82
2023-04-10T15:08:02.409Z,7.07
2023-04-10T15:10:30.714Z,7.18
2023-04-10T15:12:58.496Z,6.78
2023-04-10T15:15:26.303Z,6.25
2023-04-10T15:17:54.159Z,6.15
2023-04-10T15:20:23.278Z,6.80
2023-04-10T15:22:51.274Z,6.93
2023-04-10T15:25:19.399Z,6.70
2023-04-10T15:27:47.163Z,6.57
2023-04-10T15:30:15.139Z,6.30
2023-04-10T15:32:43.068Z,7.32
2023-04-10T15:35:11.166Z,7.13
2023-04-10T15:37:40.239Z,7.18
2023-04-10T15:40:10.474Z,6.93
2023-04-10T15:42:38.739Z,6.85
2023-04-10T15:45:07.274Z,6.82
2023-04-10T15:47:35.105Z,7.47
2023-04-10T15:50:02.977Z,7.47
2023-04-10T15:52:32.714Z,7.22
2023-04-10T15:55:01.812Z,7.65
2023-04-10T15:57:29.647Z,7.03
2023-04-10T16:00:00.402Z,7.20
2023-04-10T16:02:28.624Z,8.45
2023-04-10T16:04:56.820Z,7.13
2023-04-10T16:07:24.698Z,7.65
2023-04-10T16:09:55.072Z,7.13
2023-04-10T16:12:24.217Z,7.30
2023-04-10T16:14:52.125Z,7.38
2023-04-10T16:17:19.986Z,6.53
2023-04-10T16:19:47.870Z,7.32
2023-04-10T16:22:15.765Z,7.10
2023-04-10T16:24:43.517Z,6.50
2023-04-10T16:27:11.388Z,6.53
2023-04-10T16:29:40.556Z,6.90
2023-04-10T16:32:08.346Z,6.47
2023-04-10T16:34:36.125Z,6.45
2023-04-10T16:37:03.988Z,7.18
2023-04-10T16:39:31.801Z,6.63
2023-04-10T16:42:00.696Z,6.55
2023-04-10T16:44:28.478Z,5.38
2023-04-10T16:46:57.974Z,6.05
2023-04-10T16:49:25.801Z,5.88
2023-04-10T16:51:53.577Z,6.22
2023-04-10T16:54:21.367Z,5.85
2023-04-10T16:56:49.218Z,6.43
2023-04-10T16:59:17.121Z,6.78
2023-04-10T17:01:44.929Z,6.10
2023-04-10T17:04:16.641Z,6.47
2023-04-10T17:06:44.478Z,6.53
2023-04-10T17:09:12.237Z,6.30
2023-04-10T17:11:40.045Z,6.63
2023-04-10T17:14:09.096Z,6.80
2023-04-10T17:16:37.089Z,5.97
2023-04-10T17:19:05.027Z,6.75
2023-04-10T17:21:34.573Z,6.88
2023-04-10T17:24:02.296Z,6.22
2023-04-10T17:26:31.980Z,6.70
2023-04-10T17:28:59.739Z,6.35
2023-04-10T17:31:27.610Z,6.57
2023-04-10T17:33:55.581Z,6.07
2023-04-10T17:36:23.421Z,6.60
2023-04-10T17:38:54.152Z,6.50
2023-04-10T17:41:22.148Z,6.70
2023-04-10T17:43:50.112Z,6.85
2023-04-10T17:46:18.013Z,6.95
2023-04-10T17:48:46.461Z,7.13
2023-04-10T17:51:14.264Z,6.65
2023-04-10T17:53:42.069Z,6.82
2023-04-10T17:56:19.088Z,7.07
2023-04-10T17:58:46.898Z,6.30
2023-04-10T18:01:22.235Z,6.25
2023-04-10T18:03:50.154Z,6.65
2023-04-10T18:06:17.966Z,6.43
2023-04-10T18:08:45.855Z,6.97
2023-04-10T18:11:14.990Z,6.88
2023-04-10T18:13:42.777Z,7.07
2023-04-10T18:16:11.893Z,6.43
2023-04-10T18:18:41.848Z,6.30
2023-04-10T18:21:10.462Z,6.70
2023-04-10T18:23:39.433Z,7.20
2023-04-10T18:26:07.806Z,6.15
2023-04-10T18:28:37.917Z,6.85
2023-04-10T18:31:06.854Z,7.10
2023-04-10T18:33:34.983Z,6.93
2023-04-10T18:36:03.526Z,6.53
2023-04-10T18:38:31.609Z,7.15
2023-04-10T18:40:59.570Z,7.05
2023-04-10T18:43:28.346Z,7.10
2023-04-10T18:45:58.123Z,6.88
2023-04-10T18:48:25.945Z,7.13
2023-04-10T18:50:54.227Z,6.85
2023-04-10T18:53:22.627Z,6.07
2023-04-10T18:55:51.985Z,6.93
2023-04-10T18:58:20.350Z,6.72
2023-04-10T19:00:48.320Z,6.90
2023-04-10T19:03:17.629Z,6.88
2023-04-10T19:05:45.980Z,7.03
2023-04-10T19:08:14.607Z,7.18
2023-04-10T19:10:43.035Z,6.70
2023-04-10T19:13:12.610Z,6.68
2023-04-10T19:15:42.477Z,6.90
2023-04-10T19:18:12.313Z,6.65
2023-04-10T19:20:49.860Z,7.20
2023-04-10T19:23:19.331Z,6.40
2023-04-10T19:25:47.130Z,6.57
2023-04-10T19:28:14.958Z,6.50
2023-04-10T19:30:42.748Z,6.25
2023-04-10T19:33:10.580Z,6.50
2023-04-10T19:35:38.392Z,6.85
2023-04-10T19:38:07.539Z,6.13
2023-04-10T19:40:37.218Z,6.38
2023-04-10T19:43:05.356Z,7.05
2023-04-10T19:45:33.332Z,7.07
2023-04-10T19:48:01.185Z,6.35
2023-04-10T19:50:30.149Z,6.70
2023-04-10T19:52:58.196Z,6.38
2023-04-10T19:55:28.838Z,6.35
2023-04-10T19:57:56.848Z,6.75
2023-04-10T20:00:24.630Z,7.10
2023-04-10T20:02:52.822Z,7.93
2023-04-10T20:05:20.987Z,7.72
2023-04-10T20:07:48.835Z,7.53
2023-04-10T20:10:16.706Z,7.05
2023-04-10T20:12:45.785Z,7.35
2023-04-10T20:15:13.693Z,7.10
2023-04-10T20:17:41.503Z,6.57
2023-04-10T20:20:12.146Z,6.80
2023-04-10T20:22:39.906Z,6.07
2023-04-10T20:25:08.764Z,5.88
2023-04-10T20:27:36.511Z,6.13
2023-04-10T20:30:07.208Z,5.85
2023-04-10T20:32:35.022Z,6.35
2023-04-10T20:35:02.887Z,6.43
2023-04-10T20:37:30.686Z,6.50
2023-04-10T20:39:58.543Z,6.40
2023-04-10T20:42:26.301Z,6.15
2023-04-10T20:44:55.400Z,6.18
2023-04-10T20:47:24.591Z,6.53
2023-04-10T20:49:52.376Z,6.22
2023-04-10T20:52:20.115Z,6.22
2023-04-10T20:54:47.886Z,6.40
2023-04-10T20:57:15.663Z,6.88
2023-04-10T20:59:43.814Z,6.93
2023-04-10T21:02:11.629Z,6.50
2023-04-10T21:04:40.885Z,6.22
2023-04-10T21:07:08.638Z,6.85
2023-04-10T21:09:36.434Z,6.43
2023-04-10T21:12:04.537Z,6.50
2023-04-10T21:14:32.394Z,6.40
2023-04-10T21:17:00.253Z,6.22
2023-04-10T21:19:28.248Z,6.47
2023-04-10T21:21:58.590Z,6.75
2023-04-10T21:24:26.373Z,6.30
2023-04-10T21:26:54.120Z,6.30
2023-04-10T21:29:21.843Z,6.32
2023-04-10T21:31:50.616Z,6.80
2023-04-10T21:34:18.536Z,6.65
2023-04-10T21:36:46.321Z,6.47
2023-04-10T21:39:15.395Z,6.53
2023-04-10T21:41:43.158Z,6.75
2023-04-10T21:44:10.887Z,7.18
2023-04-10T21:46:38.608Z,7.38
2023-04-10T21:49:07.437Z,6.63
2023-04-10T21:51:35.330Z,7.13
2023-04-10T21:54:03.082Z,6.95
2023-04-10T21:56:32.137Z,6.53
2023-04-10T21:58:59.875Z,6.65
2023-04-10T22:01:27.652Z,7.20
2023-04-10T22:03:55.522Z,6.93
2023-04-10T22:06:23.329Z,7.22
2023-04-10T22:08:51.097Z,6.90
2023-04-10T22:11:18.928Z,7.43
2023-04-10T22:13:48.015Z,7.68
2023-04-10T22:16:15.754Z,7.05
2023-04-10T22:18:43.558Z,7.00
2023-04-10T22:21:13.247Z,6.93
2023-04-10T22:23:41.111Z,6.78
2023-04-10T22:26:08.889Z,7.20
2023-04-10T22:28:36.620Z,7.32
2023-04-10T22:31:06.061Z,7.60
2023-04-10T22:33:34.083Z,7.05
2023-04-10T22:36:01.914Z,7.25
2023-04-10T22:38:29.684Z,7.10
2023-04-10T22:40:57.439Z,7.45
2023-04-10T22:43:25.486Z,6.43
2023-04-10T22:45:53.268Z,6.88
2023-04-10T22:48:22.394Z,6.93
2023-04-10T22:50:50.179Z,7.23
2023-04-10T22:53:17.924Z,6.72
2023-04-10T22:55:45.793Z,7.05
2023-04-10T22:58:13.494Z,6.85
2023-04-10T23:00:41.259Z,7.65
2023-04-10T23:03:09.090Z,6.82
2023-04-10T23:05:38.194Z,8.00
2023-04-10T23:08:05.954Z,7.50
2023-04-10T23:10:33.737Z,7.10
2023-04-10T23:13:01.736Z,7.30
2023-04-10T23:15:29.477Z,7.25
2023-04-10T23:17:57.303Z,7.13
2023-04-10T23:20:25.588Z,7.43
2023-04-10T23:22:56.153Z,7.55
2023-04-10T23:25:24.142Z,7.53
2023-04-10T23:27:52.343Z,7.60
2023-04-10T23:30:20.117Z,7.38
2023-04-10T23:32:47.902Z,7.00
2023-04-10T23:35:15.750Z,7.53
2023-04-10T23:37:43.477Z,7.30
2023-04-10T23:40:13.635Z,7.45
2023-04-10T23:42:41.369Z,7.93
2023-04-10T23:45:10.245Z,7.95
2023-04-10T23:47:38.066Z,7.57
2023-04-10T23:50:07.034Z,7.53
2023-04-10T23:52:34.807Z,7.10
2023-04-10T23:55:02.579Z,7.78
2023-04-10T23:57:31.634Z,8.07
2023-04-10T23:59:59.906Z,7.53
